createdAt,value
2019-03-18T05:51:19.716Z,975.96
2019-03-18T06:19:25.525Z,976.02
2019-03-18T13:51:38.396Z,978.32
2019-03-18T13:52:32.606Z,978.29
2019-03-18T13:53:31.369Z,978.33
2019-03-18T14:16:19.726Z,978.28
2019-03-18T14:17:17.485Z,978.33
2019-03-18T14:18:29.370Z,978.36
2019-03-18T14:19:11.545Z,978.32
2019-03-18T14:21:11.777Z,978.37
2019-03-18T14:22:10.633Z,978.39
2019-03-18T14:23:08.307Z,978.34
2019-03-18T14:24:05.020Z,978.39
2019-03-18T14:25:04.855Z,978.40
2019-03-18T14:26:09.166Z,978.36
2019-03-18T14:27:04.763Z,978.39
2019-03-18T14:28:04.602Z,978.36
2019-03-18T14:29:04.445Z,978.36
2019-03-18T14:30:04.406Z,978.41
2019-03-18T14:31:04.280Z,978.39
2019-03-18T14:32:04.201Z,978.44
2019-03-18T14:33:04.111Z,978.45
2019-03-18T14:34:04.113Z,978.46
2019-03-18T14:35:04.000Z,978.43
2019-03-18T14:36:03.964Z,978.45
2019-03-18T14:37:03.778Z,978.46
2019-03-18T14:38:03.745Z,978.43
2019-03-18T14:39:03.687Z,978.47
2019-03-18T14:40:03.612Z,978.48
2019-03-18T14:41:03.528Z,978.44
2019-03-18T14:42:03.418Z,978.46
2019-03-18T14:43:03.425Z,978.48
2019-03-18T14:44:03.276Z,978.50
2019-03-18T14:45:03.221Z,978.54
2019-03-18T14:46:03.154Z,978.47
2019-03-18T14:47:03.061Z,978.57
2019-03-18T14:48:02.998Z,978.58
2019-03-18T14:49:02.834Z,978.56
2019-03-18T14:50:02.772Z,978.58
2019-03-18T14:51:02.694Z,978.63
2019-03-18T14:52:02.667Z,978.58
2019-03-18T14:53:02.634Z,978.58
2019-03-18T14:54:02.499Z,978.57
2019-03-18T14:55:02.448Z,978.58
2019-03-18T14:56:02.397Z,978.63
2019-03-18T14:57:02.296Z,978.60
2019-03-18T14:58:02.126Z,978.63
2019-03-18T14:59:02.219Z,978.61
2019-03-18T15:00:02.031Z,978.62
2019-03-18T15:01:01.931Z,978.67
2019-03-18T15:02:01.953Z,978.64
2019-03-18T15:03:03.474Z,978.68
2019-03-18T15:04:01.714Z,978.66
2019-03-18T15:05:01.687Z,978.67
2019-03-18T15:06:01.550Z,978.64
2019-03-18T15:07:01.508Z,978.60
2019-03-18T15:08:01.405Z,978.65
2019-03-18T15:09:01.315Z,978.60
2019-03-18T15:10:01.237Z,978.60
2019-03-18T15:11:01.172Z,978.60
2019-03-18T15:12:01.121Z,978.63
2019-03-18T15:13:00.977Z,978.59
2019-03-18T15:14:00.938Z,978.58
2019-03-18T15:15:00.818Z,978.58
2019-03-18T15:16:00.744Z,978.63
2019-03-18T15:17:00.623Z,978.62
2019-03-18T15:18:00.671Z,978.61
2019-03-18T15:19:00.536Z,978.59
2019-03-18T15:20:00.417Z,978.63
2019-03-18T15:21:00.410Z,978.66
2019-03-18T15:22:00.317Z,978.66
2019-03-18T15:23:00.213Z,978.70
2019-03-18T15:24:00.181Z,978.74
2019-03-18T15:25:00.334Z,978.73
2019-03-18T15:26:00.080Z,978.75
2019-03-18T15:26:59.963Z,978.78
2019-03-18T15:27:59.775Z,978.78
2019-03-18T15:28:59.774Z,978.76
2019-03-18T15:29:59.693Z,978.79
2019-03-18T15:30:59.575Z,978.83
2019-03-18T15:31:59.522Z,978.80
2019-03-18T15:32:59.400Z,978.72
2019-03-18T15:33:59.330Z,978.76
2019-03-18T15:34:59.295Z,978.79
2019-03-18T15:35:59.239Z,978.74
2019-03-18T15:36:59.084Z,978.79
2019-03-18T15:37:59.037Z,978.77
2019-03-18T15:38:58.924Z,978.82
2019-03-18T15:39:58.874Z,978.83
2019-03-18T15:40:58.812Z,978.84
2019-03-18T15:41:58.828Z,978.85
2019-03-18T15:42:58.711Z,978.83
2019-03-18T15:43:58.512Z,978.88
2019-03-18T15:44:58.467Z,978.90
2019-03-18T15:45:58.406Z,978.89
2019-03-18T15:46:58.299Z,978.91
2019-03-18T15:47:58.343Z,978.90
2019-03-18T15:48:58.136Z,978.87
2019-03-18T15:49:58.151Z,978.91
2019-03-18T15:50:57.990Z,978.89
2019-03-18T15:52:10.082Z,978.94
2019-03-18T15:52:57.872Z,978.94
2019-03-18T15:53:57.775Z,978.97
2019-03-18T15:54:57.709Z,978.97
2019-03-18T15:55:57.548Z,979.06
2019-03-18T15:56:57.569Z,978.94
2019-03-18T15:57:57.521Z,978.98
2019-03-18T15:58:57.424Z,979.04
2019-03-18T15:59:57.270Z,979.02
2019-03-18T16:00:57.146Z,979.06
2019-03-18T16:01:57.174Z,979.08
2019-03-18T16:02:57.124Z,979.12
2019-03-18T16:03:57.064Z,979.10
2019-03-18T16:04:56.916Z,979.11
2019-03-18T16:05:56.860Z,979.13
2019-03-18T16:06:56.875Z,979.14
2019-03-18T16:07:56.682Z,979.13
2019-03-18T16:08:56.577Z,979.19
2019-03-18T16:09:56.512Z,979.24
2019-03-18T16:10:56.491Z,979.29
2019-03-18T16:11:56.395Z,979.32
2019-03-18T16:12:56.320Z,979.30
2019-03-18T16:13:56.153Z,979.32
2019-03-18T16:14:56.199Z,979.32
2019-03-18T16:15:56.103Z,979.33
2019-03-18T16:17:01.881Z,979.31
2019-03-18T16:17:55.900Z,979.32
2019-03-18T16:18:55.831Z,979.31
2019-03-18T16:19:55.741Z,979.37
2019-03-18T16:20:55.690Z,979.41
2019-03-18T16:21:55.573Z,979.44
2019-03-18T16:22:55.476Z,979.57
2019-03-18T16:23:55.446Z,979.73
2019-03-18T16:24:55.327Z,979.78
2019-03-18T16:25:55.253Z,979.76
2019-03-18T16:26:55.100Z,979.82
2019-03-18T16:27:55.094Z,979.85
2019-03-18T16:28:55.015Z,979.89
2019-03-18T16:29:54.876Z,979.96
2019-03-18T16:30:54.885Z,979.93
2019-03-18T16:31:54.779Z,979.92
2019-03-18T16:32:54.626Z,979.94
2019-03-18T16:33:54.625Z,979.93
2019-03-18T16:34:54.627Z,979.96
2019-03-18T16:35:54.521Z,979.92
2019-03-18T16:36:54.468Z,979.99
2019-03-18T16:37:54.292Z,979.95
2019-03-18T16:38:54.209Z,979.91
2019-03-18T16:39:54.172Z,979.96
2019-03-18T16:40:54.073Z,979.91
2019-03-18T16:41:54.387Z,979.91
2019-03-18T16:42:53.828Z,979.98
2019-03-18T16:43:53.874Z,979.92
2019-03-18T16:44:53.668Z,979.96
2019-03-18T16:45:53.620Z,979.98
2019-03-18T16:46:53.558Z,979.99
2019-03-18T16:47:53.508Z,979.97
2019-03-18T16:48:53.380Z,979.98
2019-03-18T16:49:53.262Z,980.00
2019-03-18T16:50:53.279Z,979.98
2019-03-18T16:51:53.199Z,980.00
2019-03-18T16:52:53.103Z,979.98
2019-03-18T16:53:52.927Z,979.97
2019-03-18T16:54:52.907Z,979.99
2019-03-18T16:55:52.880Z,979.99
2019-03-18T16:56:52.761Z,980.03
2019-03-18T16:57:52.724Z,980.07
2019-03-18T16:58:53.609Z,980.06
2019-03-18T16:59:52.533Z,980.05
2019-03-18T17:00:52.509Z,980.04
2019-03-18T17:01:52.317Z,980.05
2019-03-18T17:02:52.283Z,980.07
2019-03-18T17:03:52.234Z,980.08
2019-03-18T17:04:52.088Z,980.10
2019-03-18T17:05:52.107Z,980.12
2019-03-18T17:06:51.966Z,980.14
2019-03-18T17:07:54.191Z,980.14
2019-03-18T17:08:51.835Z,980.11
2019-03-18T17:09:51.747Z,980.14
2019-03-18T17:10:51.677Z,980.12
2019-03-18T17:11:51.603Z,980.15
2019-03-18T17:12:51.509Z,980.22
2019-03-18T17:13:51.487Z,980.22
2019-03-18T17:14:51.422Z,980.24
2019-03-18T17:15:51.208Z,980.18
2019-03-18T17:16:51.127Z,980.20
2019-03-18T17:17:51.033Z,980.24
2019-03-18T17:18:50.999Z,980.22
2019-03-18T17:19:51.017Z,980.23
2019-03-18T17:20:50.821Z,980.23
2019-03-18T17:21:50.703Z,980.23
2019-03-18T17:22:50.724Z,980.23
2019-03-18T17:23:50.594Z,980.23
2019-03-18T17:24:50.441Z,980.23
2019-03-18T17:25:50.475Z,980.24
2019-03-18T17:26:50.325Z,980.28
2019-03-18T17:27:50.209Z,980.29
2019-03-18T17:28:50.181Z,980.28
2019-03-18T17:29:50.136Z,980.30
2019-03-18T17:30:49.962Z,980.29
2019-03-18T17:31:49.997Z,980.32
2019-03-18T17:32:49.852Z,980.31
2019-03-18T17:33:49.812Z,980.36
2019-03-18T17:34:49.726Z,980.36
2019-03-18T17:35:49.598Z,980.40
2019-03-18T17:36:49.518Z,980.40
2019-03-18T17:37:49.424Z,980.36
2019-03-18T17:38:49.392Z,980.39
2019-03-18T17:39:49.256Z,980.35
2019-03-18T17:40:49.223Z,980.38
2019-03-18T17:41:49.117Z,980.36
2019-03-18T17:42:49.026Z,980.33
2019-03-18T17:43:49.034Z,980.34
2019-03-18T17:44:48.892Z,980.32
2019-03-18T17:45:48.800Z,980.32
2019-03-18T17:46:48.741Z,980.37
2019-03-18T17:47:48.676Z,980.35
2019-03-18T17:48:48.544Z,980.34
2019-03-18T17:49:48.471Z,980.37
2019-03-18T17:50:48.379Z,980.34
2019-03-18T17:51:49.043Z,980.41
2019-03-18T17:53:00.905Z,980.42
2019-03-18T17:53:50.062Z,980.44
2019-03-18T17:54:48.055Z,980.46
2019-03-18T17:55:47.973Z,980.47
2019-03-18T17:56:47.866Z,980.51
2019-03-18T17:57:47.804Z,980.53
2019-03-18T17:58:47.714Z,980.53
2019-03-18T17:59:47.809Z,980.60
2019-03-18T18:00:47.592Z,980.62
2019-03-18T18:01:47.458Z,980.60
2019-03-18T18:02:47.384Z,980.61
2019-03-18T18:03:47.329Z,980.68
2019-03-18T18:04:47.206Z,980.69
2019-03-18T18:05:47.135Z,980.71
2019-03-18T18:06:47.043Z,980.78
2019-03-18T18:07:47.002Z,980.84
2019-03-18T18:08:46.948Z,981.01
2019-03-18T18:09:46.830Z,981.06
2019-03-18T18:10:46.845Z,981.08
2019-03-18T18:11:46.801Z,981.07
2019-03-18T18:12:46.645Z,981.02
2019-03-18T18:13:46.595Z,980.99
2019-03-18T18:14:46.548Z,981.06
2019-03-18T18:15:46.433Z,981.16
2019-03-18T18:16:46.257Z,981.18
2019-03-18T18:17:46.239Z,981.25
2019-03-18T18:18:46.292Z,981.25
2019-03-18T18:19:46.318Z,981.23
2019-03-18T18:20:46.010Z,981.19
2019-03-18T18:21:45.827Z,981.22
2019-03-18T18:22:45.737Z,981.28
2019-03-18T18:23:45.654Z,981.29
2019-03-18T18:24:45.571Z,981.27
2019-03-18T18:25:45.513Z,981.26
2019-03-18T18:26:45.472Z,981.27
2019-03-18T18:27:45.330Z,981.29
2019-03-18T18:28:45.300Z,981.32
2019-03-18T18:29:45.203Z,981.37
2019-03-18T18:30:45.094Z,981.38
2019-03-18T18:31:45.038Z,981.34
2019-03-18T18:32:44.981Z,981.32
2019-03-18T18:33:44.837Z,981.32
2019-03-18T18:34:44.855Z,981.32
2019-03-18T18:35:44.779Z,981.34
2019-03-18T18:36:44.710Z,981.35
2019-03-18T18:37:44.615Z,981.39
2019-03-18T18:38:44.579Z,981.42
2019-03-18T18:39:44.448Z,981.47
2019-03-18T18:40:44.372Z,981.47
2019-03-18T18:41:44.250Z,981.49
2019-03-18T18:42:44.154Z,981.53
2019-03-18T18:43:44.131Z,981.55
2019-03-18T18:44:43.997Z,981.57
2019-03-18T18:45:43.936Z,981.60
2019-03-18T18:46:43.839Z,981.55
2019-03-18T18:47:43.819Z,981.51
2019-03-18T18:48:43.705Z,981.50
2019-03-18T18:49:43.649Z,981.46
2019-03-18T18:50:43.533Z,981.44
2019-03-18T19:27:08.174Z,981.68
2019-03-18T19:28:08.031Z,981.68
2019-03-18T19:29:08.009Z,981.69
2019-03-18T20:01:08.715Z,981.78
2019-03-18T20:02:03.563Z,981.83
2019-03-18T20:03:03.393Z,981.75
2019-03-18T20:13:04.906Z,981.86
2019-03-18T20:14:04.657Z,981.83
2019-03-18T20:20:17.318Z,981.80
2019-03-18T20:22:10.127Z,981.77
2019-03-18T20:23:10.023Z,981.78
2019-03-18T20:24:10.056Z,981.81
2019-03-18T20:28:09.636Z,981.80
2019-03-18T20:29:09.405Z,981.78
2019-03-18T20:30:09.396Z,981.80
2019-03-18T20:31:09.341Z,981.81
2019-03-18T20:32:09.202Z,981.81
2019-03-18T20:33:09.181Z,981.87
2019-03-18T20:34:09.184Z,981.88
2019-03-18T20:35:08.964Z,981.85
2019-03-18T20:36:08.853Z,981.82
2019-03-18T20:37:08.770Z,981.79
2019-03-18T20:38:08.730Z,981.79
2019-03-18T20:39:08.670Z,981.75
2019-03-18T20:40:08.481Z,981.77
2019-03-18T20:41:08.431Z,981.79
2019-03-18T20:42:08.351Z,981.86
2019-03-18T20:43:08.304Z,981.83
2019-03-18T20:44:08.222Z,981.84
2019-03-18T20:45:08.201Z,981.89
2019-03-18T20:46:08.112Z,981.84
2019-03-18T20:47:08.011Z,981.83
2019-03-18T20:48:07.930Z,981.84
2019-03-18T20:49:07.752Z,981.84
2019-03-18T20:50:07.724Z,981.82
2019-03-18T20:51:07.622Z,981.85
2019-03-18T20:52:16.334Z,981.78
2019-03-18T20:53:07.542Z,981.80
2019-03-18T20:54:12.080Z,981.80
2019-03-18T20:55:07.371Z,981.83
2019-03-18T20:56:07.203Z,981.83
2019-03-18T20:57:07.128Z,981.89
2019-03-18T20:58:07.088Z,981.90
2019-03-18T20:59:06.980Z,981.92
2019-03-18T21:00:06.910Z,981.93
2019-03-18T21:01:06.882Z,981.94
2019-03-18T21:02:06.754Z,981.97
2019-03-18T21:03:06.720Z,981.95
2019-03-18T21:04:06.524Z,981.96
2019-03-18T21:05:06.558Z,981.95
2019-03-18T21:06:06.367Z,981.98
2019-03-18T21:07:06.283Z,981.93
2019-03-18T21:08:06.375Z,981.98
2019-03-18T21:09:06.152Z,981.97
2019-03-18T21:10:06.072Z,982.01
2019-03-18T21:11:05.950Z,981.99
2019-03-18T21:12:05.960Z,981.96
2019-03-18T21:13:05.852Z,981.95
2019-03-18T21:14:05.771Z,981.93
2019-03-18T21:15:05.726Z,981.94
2019-03-18T21:16:05.628Z,981.97
2019-03-18T21:17:05.534Z,981.99
2019-03-18T21:18:05.461Z,982.00
2019-03-18T21:19:05.308Z,982.03
2019-03-18T21:20:05.269Z,982.01
2019-03-18T21:21:05.158Z,982.04
2019-03-18T21:22:05.071Z,982.06
2019-03-18T21:23:04.944Z,982.06
2019-03-18T21:24:04.976Z,982.09
2019-03-18T21:25:04.843Z,982.12
2019-03-18T21:26:04.762Z,982.09
2019-03-18T21:27:04.687Z,982.12
2019-03-18T21:28:04.539Z,982.11
2019-03-18T21:29:04.567Z,982.09
2019-03-18T21:30:04.373Z,982.09
2019-03-18T21:31:04.429Z,982.10
2019-03-18T21:32:04.323Z,982.09
2019-03-18T21:33:04.325Z,982.06
2019-03-18T21:34:04.182Z,982.10
2019-03-18T21:35:04.025Z,982.11
2019-03-18T21:36:03.997Z,982.13
2019-03-18T21:37:03.878Z,982.11
2019-03-18T21:38:03.754Z,982.12
2019-03-18T21:39:03.623Z,982.08
2019-03-18T21:40:03.600Z,982.10
2019-03-18T21:41:03.513Z,982.09
2019-03-18T21:42:03.442Z,982.09
2019-03-18T21:43:03.383Z,982.11
2019-03-18T21:44:03.317Z,982.07
2019-03-18T21:45:03.226Z,982.06
2019-03-18T21:46:03.118Z,982.08
2019-03-18T21:47:03.026Z,982.09
2019-03-18T21:48:02.977Z,982.05
2019-03-18T21:49:02.919Z,982.05
2019-03-18T21:50:02.792Z,982.08
2019-03-18T21:51:02.655Z,982.06
2019-03-18T21:52:02.576Z,982.09
2019-03-18T21:53:02.528Z,982.10
2019-03-18T21:54:02.492Z,982.10
2019-03-18T21:55:02.342Z,982.12
2019-03-18T21:56:02.271Z,982.15
2019-03-18T21:57:02.135Z,982.17
2019-03-18T21:58:02.130Z,982.22
2019-03-18T21:59:02.108Z,982.27
2019-03-18T22:00:01.983Z,982.26
2019-03-18T22:01:01.807Z,982.28
2019-03-18T22:02:01.778Z,982.24
2019-03-18T22:03:01.687Z,982.29
2019-03-18T22:04:01.695Z,982.29
2019-03-18T22:05:01.581Z,982.30
2019-03-18T22:06:01.448Z,982.32
2019-03-18T22:07:01.322Z,982.36
2019-03-18T22:08:01.275Z,982.41
2019-03-18T22:09:01.142Z,982.43
2019-03-18T22:10:01.132Z,982.46
2019-03-18T22:11:01.026Z,982.47
2019-03-18T22:12:00.978Z,982.50
2019-03-18T22:13:00.950Z,982.52
2019-03-18T22:14:00.728Z,982.55
2019-03-18T22:15:00.783Z,982.55
2019-03-18T22:16:00.609Z,982.58
2019-03-18T22:17:00.607Z,982.57
2019-03-18T22:18:00.514Z,982.55
2019-03-18T22:19:00.401Z,982.56
2019-03-18T22:20:00.359Z,982.55
2019-03-18T22:21:00.192Z,982.56
2019-03-18T22:22:00.113Z,982.55
2019-03-18T22:23:00.084Z,982.58
2019-03-18T22:23:59.895Z,982.61
2019-03-18T22:24:59.849Z,982.61
2019-03-18T22:25:59.742Z,982.64
2019-03-18T22:26:59.719Z,982.62
2019-03-18T22:27:59.632Z,982.61
2019-03-18T22:28:59.509Z,982.61
2019-03-18T22:29:59.490Z,982.64
2019-03-18T22:30:59.388Z,982.61
2019-03-18T22:31:59.268Z,982.61
2019-03-18T22:32:59.188Z,982.59
2019-03-18T22:33:59.151Z,982.58
2019-03-18T22:34:59.027Z,982.59
2019-03-18T22:35:58.976Z,982.59
2019-03-18T22:36:58.881Z,982.58
2019-03-18T22:37:58.758Z,982.61
2019-03-18T22:38:58.671Z,982.59
2019-03-18T22:39:58.638Z,982.61
2019-03-18T22:40:58.505Z,982.63
2019-03-18T22:41:58.484Z,982.61
2019-03-18T22:42:58.378Z,982.63
2019-03-18T22:43:58.276Z,982.68
2019-03-18T22:44:58.254Z,982.66
2019-03-18T22:45:58.196Z,982.67
2019-03-18T22:46:57.996Z,982.67
2019-03-18T22:47:57.969Z,982.69
2019-03-18T22:48:57.837Z,982.72
2019-03-18T22:49:57.771Z,982.70
2019-03-18T22:50:57.740Z,982.71
2019-03-18T22:51:57.602Z,982.68
2019-03-18T22:52:57.549Z,982.74
2019-03-18T22:53:57.510Z,982.74
2019-03-18T22:54:57.446Z,982.77
2019-03-18T22:55:57.412Z,982.78
2019-03-18T22:56:57.188Z,982.78
2019-03-18T22:57:57.231Z,982.79
2019-03-18T22:58:57.075Z,982.77
2019-03-18T22:59:57.011Z,982.77
2019-03-18T23:00:56.914Z,982.78
2019-03-18T23:01:56.791Z,982.76
2019-03-18T23:02:56.758Z,982.77
2019-03-18T23:03:56.707Z,982.73
2019-03-18T23:04:56.542Z,982.74
2019-03-18T23:05:56.492Z,982.77
2019-03-18T23:06:56.476Z,982.78
2019-03-18T23:07:56.323Z,982.79
2019-03-18T23:08:56.232Z,982.82
2019-03-18T23:09:56.136Z,982.82
2019-03-18T23:10:56.029Z,982.85
2019-03-18T23:11:56.121Z,982.87
2019-03-18T23:12:55.860Z,982.86
2019-03-18T23:13:55.823Z,982.86
2019-03-18T23:14:55.698Z,982.86
2019-03-18T23:15:55.712Z,982.80
2019-03-18T23:16:55.617Z,982.85
2019-03-18T23:17:55.488Z,982.82
2019-03-18T23:18:55.445Z,982.81
2019-03-18T23:19:55.337Z,982.81
2019-03-18T23:20:55.283Z,982.77
2019-03-18T23:21:55.139Z,982.79
2019-03-18T23:22:55.097Z,982.77
2019-03-18T23:23:55.019Z,982.82
2019-03-18T23:24:54.917Z,982.78
2019-03-18T23:25:54.834Z,982.79
2019-03-18T23:26:54.688Z,982.82
2019-03-18T23:27:54.655Z,982.85
2019-03-18T23:28:54.594Z,982.84
2019-03-18T23:29:54.509Z,982.84
2019-03-18T23:30:54.396Z,982.86
2019-03-18T23:31:54.361Z,982.86
2019-03-18T23:32:54.195Z,982.86
2019-03-18T23:33:54.238Z,982.88
2019-03-18T23:34:54.114Z,982.85
2019-03-18T23:35:54.027Z,982.85
2019-03-18T23:36:53.941Z,982.86
2019-03-18T23:37:53.852Z,982.88
2019-03-18T23:38:53.711Z,982.89
2019-03-18T23:39:53.704Z,982.91
2019-03-18T23:40:53.628Z,982.92
2019-03-18T23:41:53.600Z,982.88
2019-03-18T23:42:53.453Z,982.89
2019-03-18T23:43:53.373Z,982.91
2019-03-18T23:44:53.213Z,982.90
2019-03-18T23:45:53.143Z,982.92
2019-03-18T23:46:53.137Z,982.94
2019-03-18T23:47:53.080Z,982.92
2019-03-18T23:48:52.974Z,982.94
2019-03-18T23:49:52.813Z,982.98
2019-03-18T23:50:52.755Z,982.98
2019-03-18T23:51:52.644Z,982.99
2019-03-18T23:52:52.594Z,983.02
2019-03-18T23:53:52.511Z,983.06
2019-03-18T23:54:52.396Z,982.97
2019-03-18T23:55:52.313Z,982.98
2019-03-18T23:56:52.265Z,983.00
2019-03-18T23:57:54.283Z,982.97
2019-03-18T23:58:52.084Z,982.94
2019-03-18T23:59:51.958Z,982.97
